Time;durP1;ratioP1;P1;durP2;ratioP2;P2;SDS_P1;SDS_P2;PMS_P1;PMS_P2;Temp;Humidity;BMP_temperature;BMP_pressure;BME280_temperature;BME280_humidity;BME280_pressure;Samples;Min_cycle;Max_cycle;Signal;HPM_P1;HPM_P2
2022/08/22 00:01:38;;;;;;;2.47;0.60;;;20.70;94.00;;;;;;5073864;28;20032;-73
2022/08/22 00:04:19;;;;;;;1.52;0.60;;;20.70;94.00;;;;;;5072879;28;20116;-73
2022/08/22 00:07:10;;;;;;;2.75;0.60;;;20.50;93.90;;;;;;5056880;28;20504;-73
2022/08/22 00:09:54;;;;;;;1.58;0.75;;;20.30;94.90;;;;;;5052461;28;20459;-73
2022/08/22 00:12:31;;;;;;;2.42;0.88;;;20.20;93.90;;;;;;5067401;28;21873;-73
2022/08/22 00:15:25;;;;;;;1.10;0.57;;;20.20;94.40;;;;;;5073015;28;20036;-73
2022/08/22 00:17:57;;;;;;;1.55;0.70;;;20.40;93.90;;;;;;5059838;28;20067;-73
2022/08/22 00:20:28;;;;;;;1.92;0.60;;;20.40;93.50;;;;;;5065664;28;20410;-73
2022/08/22 00:23:18;;;;;;;2.05;0.95;;;20.30;93.70;;;;;;5067150;28;20536;-73
2022/08/22 00:26:07;;;;;;;1.50;0.68;;;20.20;93.30;;;;;;5052537;28;20032;-73
2022/08/22 00:28:46;;;;;;;1.42;0.63;;;19.90;93.30;;;;;;5052929;28;20032;-73
2022/08/22 00:31:34;;;;;;;3.03;0.90;;;19.90;93.20;;;;;;5062217;28;20108;-73
2022/08/22 00:34:09;;;;;;;1.48;0.60;;;20.00;92.60;;;;;;5064672;28;20041;-73
2022/08/22 00:37:09;;;;;;;2.25;0.70;;;19.90;93.20;;;;;;5072047;28;20035;-73
2022/08/22 00:39:44;;;;;;;0.90;0.47;;;19.70;93.80;;;;;;5034701;28;20376;-73
2022/08/22 00:42:45;;;;;;;2.38;1.25;;;19.80;93.10;;;;;;5056812;28;20032;-73
2022/08/22 00:45:17;;;;;;;1.63;0.47;;;19.80;92.90;;;;;;5072853;28;20033;-73
2022/08/22 00:48:18;;;;;;;2.67;0.60;;;19.90;92.60;;;;;;5058869;28;20055;-73
2022/08/22 00:51:12;;;;;;;1.55;0.73;;;19.90;92.70;;;;;;5052493;28;20411;-73
2022/08/22 00:53:59;;;;;;;2.58;0.63;;;19.80;92.40;;;;;;5072710;28;20066;-73
2022/08/22 00:56:46;;;;;;;0.82;0.43;;;19.80;92.50;;;;;;5070722;28;20036;-73
2022/08/22 00:59:17;;;;;;;2.88;0.55;;;19.70;92.20;;;;;;5069244;28;20025;-73
2022/08/22 01:02:20;;;;;;;1.70;0.70;;;19.70;92.40;;;;;;5071382;28;20055;-73
2022/08/22 01:04:49;;;;;;;1.50;0.60;;;19.50;92.30;;;;;;5058062;28;20039;-73
2022/08/22 01:07:30;;;;;;;2.15;0.70;;;19.50;92.10;;;;;;5072137;28;20031;-73
2022/08/22 01:10:09;;;;;;;3.05;0.63;;;19.50;92.10;;;;;;5057095;28;20478;-73
2022/08/22 01:13:02;;;;;;;1.55;0.68;;;19.50;92.00;;;;;;5051714;28;20039;-73
2022/08/22 01:15:34;;;;;;;2.00;0.70;;;19.60;91.40;;;;;;5058404;28;20655;-73
2022/08/22 01:18:22;;;;;;;1.75;0.75;;;19.50;92.20;;;;;;5056744;28;20053;-73
2022/08/22 01:21:05;;;;;;;2.53;0.60;;;19.50;91.70;;;;;;5059495;28;20025;-73
2022/08/22 01:23:56;;;;;;;1.30;0.80;;;19.60;91.30;;;;;;5053486;28;20478;-73
2022/08/22 01:26:40;;;;;;;1.52;0.60;;;19.50;91.30;;;;;;5066230;28;20033;-73
2022/08/22 01:29:08;;;;;;;;;;;19.70;90.90;;;;;;5069915;28;20028;-73
2022/08/22 01:32:02;;;;;;;1.70;0.80;;;19.50;91.30;;;;;;5069275;28;19920;-73
2022/08/22 01:34:42;;;;;;;3.90;0.95;;;19.40;91.20;;;;;;5065721;28;20127;-73
2022/08/22 01:37:42;;;;;;;1.35;0.57;;;19.20;91.50;;;;;;5061485;28;20032;-73
2022/08/22 01:40:14;;;;;;;0.68;0.40;;;19.40;91.00;;;;;;5066591;28;20036;-73
2022/08/22 01:42:48;;;;;;;2.00;0.80;;;19.20;90.90;;;;;;5067548;28;20032;-73
2022/08/22 01:45:14;;;;;;;;;;;19.30;90.80;;;;;;5070985;28;20062;-73
2022/08/22 01:48:10;;;;;;;1.75;0.70;;;19.60;90.30;;;;;;5070288;28;19904;-73
2022/08/22 01:50:42;;;;;;;1.80;0.70;;;19.70;89.70;;;;;;5070999;28;20035;-73
2022/08/22 01:53:47;;;;;;;1.52;0.75;;;19.70;89.80;;;;;;5071799;28;20159;-73
2022/08/22 01:56:21;;;;;;;1.90;0.68;;;19.70;90.10;;;;;;5069285;28;20071;-73
2022/08/22 01:59:09;;;;;;;1.08;0.50;;;20.00;88.90;;;;;;5068190;28;20074;-73
2022/08/22 02:02:00;;;;;;;2.28;0.90;;;20.30;87.40;;;;;;5070902;28;20040;-73
2022/08/22 02:05:01;;;;;;;1.20;0.60;;;20.10;88.30;;;;;;5065036;28;20044;-73
2022/08/22 02:07:42;;;;;;;1.30;0.55;;;20.30;88.10;;;;;;5004514;28;20125;-73
2022/08/22 02:10:34;;;;;;;2.15;0.73;;;20.00;88.70;;;;;;5052593;28;20040;-73
2022/08/22 02:13:18;;;;;;;2.80;0.75;;;19.70;89.20;;;;;;5069587;28;20032;-73
2022/08/22 02:15:52;;;;;;;0.73;0.60;;;19.60;90.00;;;;;;5050309;28;20078;-73
2022/08/22 02:18:25;;;;;;;1.38;0.70;;;19.50;90.20;;;;;;5057588;28;20489;-73
2022/08/22 02:20:57;;;;;;;2.15;0.60;;;19.20;90.80;;;;;;5070997;28;20028;-73
2022/08/22 02:23:45;;;;;;;4.32;0.80;;;18.90;90.90;;;;;;5055137;28;20099;-73
2022/08/22 02:26:20;;;;;;;4.43;1.20;;;19.00;90.80;;;;;;5053249;28;20124;-73
2022/08/22 02:29:00;;;;;;;2.15;0.95;;;19.20;90.50;;;;;;5060995;28;20029;-73
2022/08/22 02:32:03;;;;;;;1.35;0.65;;;19.00;90.80;;;;;;5064301;28;20044;-73
2022/08/22 02:34:37;;;;;;;1.30;0.60;;;18.90;90.90;;;;;;5072584;28;20025;-73
2022/08/22 02:37:09;;;;;;;3.58;0.80;;;18.70;91.20;;;;;;5061767;28;20040;-73
2022/08/22 02:39:38;;;;;;;3.22;0.77;;;18.80;91.00;;;;;;5067925;28;20032;-73
2022/08/22 02:42:25;;;;;;;3.28;1.05;;;18.80;91.10;;;;;;5070624;28;20021;-73
2022/08/22 02:45:02;;;;;;;2.92;0.77;;;19.00;90.50;;;;;;5073443;28;20478;-73
2022/08/22 02:47:46;;;;;;;1.95;0.75;;;18.80;90.90;;;;;;5058553;28;20075;-73
2022/08/22 02:50:43;;;;;;;2.30;0.60;;;18.90;90.70;;;;;;5070193;28;20559;-73
2022/08/22 02:53:31;;;;;;;1.92;0.77;;;18.90;90.70;;;;;;5071604;28;20036;-73
2022/08/22 02:56:41;;;;;;;3.72;0.75;;;19.10;90.10;;;;;;5068100;28;20080;-73
2022/08/22 02:59:26;;;;;;;1.40;0.70;;;19.10;90.30;;;;;;5006686;28;20034;-73
2022/08/22 03:01:54;;;;;;;1.75;0.80;;;19.10;90.40;;;;;;5020720;28;20049;-72
2022/08/22 03:04:25;;;;;;;3.53;0.88;;;19.10;90.40;;;;;;5036472;28;20071;-72
2022/08/22 03:07:06;;;;;;;1.70;0.70;;;18.90;90.70;;;;;;5069436;28;20043;-72
2022/08/22 03:09:47;;;;;;;3.45;1.08;;;18.70;90.90;;;;;;5055884;28;20101;-72
2022/08/22 03:12:31;;;;;;;3.45;0.80;;;18.90;90.40;;;;;;5061260;28;20072;-72
2022/08/22 03:15:08;;;;;;;4.63;0.87;;;18.70;90.90;;;;;;5057964;28;20025;-71
2022/08/22 03:17:59;;;;;;;2.25;0.98;;;18.40;91.20;;;;;;5048542;28;20291;-73
2022/08/22 03:21:04;;;;;;;2.38;0.85;;;18.60;90.90;;;;;;5053009;28;20052;-73
2022/08/22 03:23:39;;;;;;;4.03;0.85;;;18.40;91.10;;;;;;5038663;28;20087;-72
2022/08/22 03:26:12;;;;;;;2.78;0.93;;;18.70;90.80;;;;;;5049310;28;20040;-71
2022/08/22 03:28:44;;;;;;;1.90;0.82;;;18.60;90.90;;;;;;5062068;28;20050;-72
2022/08/22 03:31:22;;;;;;;2.35;0.82;;;18.70;90.70;;;;;;5066240;28;20115;-72
2022/08/22 03:34:15;;;;;;;2.30;1.00;;;18.50;91.00;;;;;;5064812;28;20029;-71
2022/08/22 03:37:01;;;;;;;1.80;0.80;;;18.50;90.90;;;;;;5069526;28;20029;-72
2022/08/22 03:40:00;;;;;;;1.85;0.68;;;18.50;91.20;;;;;;5066344;28;20040;-72
2022/08/22 03:42:54;;;;;;;3.22;0.85;;;18.10;91.50;;;;;;5062782;28;20118;-72
2022/08/22 03:45:53;;;;;;;1.75;0.75;;;18.40;90.90;;;;;;5057211;28;20028;-72
2022/08/22 03:48:41;;;;;;;1.40;0.52;;;18.40;90.90;;;;;;5063135;28;20132;-72
2022/08/22 03:51:44;;;;;;;1.38;0.57;;;18.40;90.70;;;;;;5065702;28;20085;-72
2022/08/22 03:54:30;;;;;;;2.30;0.90;;;18.40;90.60;;;;;;5059388;28;20071;-72
2022/08/22 03:57:07;;;;;;;1.60;0.75;;;18.30;90.80;;;;;;5067220;28;20529;-72
2022/08/22 03:59:55;;;;;;;2.45;0.68;;;18.60;90.10;;;;;;5042232;28;20025;-72
2022/08/22 04:02:57;;;;;;;1.63;0.68;;;18.50;90.30;;;;;;5058166;28;20024;-72
2022/08/22 04:06:14;;;;;;;2.90;1.02;;;18.50;90.40;;;;;;5058069;28;20029;-72
2022/08/22 04:09:03;;;;;;;1.85;0.80;;;18.50;90.40;;;;;;4995831;28;20073;-72
2022/08/22 04:11:47;;;;;;;2.22;0.88;;;19.00;89.50;;;;;;4999147;28;20053;-72
2022/08/22 04:14:46;;;;;;;2.47;1.00;;;19.00;89.50;;;;;;5030759;28;20106;-72
2022/08/22 04:17:37;;;;;;;2.45;0.95;;;19.30;88.40;;;;;;5053718;28;20064;-71
2022/08/22 04:20:09;;;;;;;1.52;0.80;;;19.30;88.70;;;;;;5064923;28;20032;-72
2022/08/22 04:23:03;;;;;;;2.45;0.80;;;19.00;89.70;;;;;;5056636;28;20036;-72
2022/08/22 04:25:34;;;;;;;;;;;19.00;89.20;;;;;;5057564;28;20111;-72
2022/08/22 04:28:24;;;;;;;1.13;0.55;;;18.70;90.00;;;;;;5062904;28;19954;-72
2022/08/22 04:31:13;;;;;;;2.35;0.82;;;18.40;90.60;;;;;;5041771;28;20422;-72
2022/08/22 04:34:10;;;;;;;2.35;0.80;;;18.30;90.40;;;;;;5042800;28;21152;-72
2022/08/22 04:36:56;;;;;;;3.05;0.90;;;18.40;90.50;;;;;;5061033;28;20064;-72
2022/08/22 04:39:47;;;;;;;2.35;1.00;;;18.40;90.40;;;;;;5059569;28;20541;-72
2022/08/22 04:42:21;;;;;;;2.78;0.82;;;18.30;90.60;;;;;;5050527;28;20032;-72
2022/08/22 04:44:54;;;;;;;3.05;1.00;;;18.40;90.30;;;;;;5064972;28;20041;-73
2022/08/22 04:47:32;;;;;;;2.20;0.85;;;18.40;90.40;;;;;;5056283;28;20032;-72
2022/08/22 04:50:21;;;;;;;2.03;0.80;;;18.30;90.60;;;;;;5052922;28;20025;-72
2022/08/22 04:53:11;;;;;;;1.70;0.82;;;18.30;90.70;;;;;;5035158;28;20053;-72
2022/08/22 04:55:58;;;;;;;2.70;1.17;;;18.30;90.80;;;;;;5047616;28;20119;-72
2022/08/22 04:58:47;;;;;;;1.75;0.68;;;18.30;90.80;;;;;;5061996;28;20493;-71
2022/08/22 05:01:25;;;;;;;5.90;1.25;;;18.60;90.30;;;;;;5049224;28;20057;-72
2022/08/22 05:03:57;;;;;;;2.13;0.80;;;18.30;90.60;;;;;;5062461;28;20064;-72
2022/08/22 05:06:27;;;;;;;2.08;0.90;;;18.10;90.80;;;;;;5064384;28;20055;-72
2022/08/22 05:08:58;;;;;;;1.92;0.80;;;18.10;90.90;;;;;;5063077;28;20037;-72
2022/08/22 05:11:24;;;;;;;2.35;0.90;;;18.10;90.90;;;;;;5058120;28;20610;-72
2022/08/22 05:13:55;;;;;;;1.73;0.65;;;18.00;91.10;;;;;;5049418;28;20043;-72
2022/08/22 05:16:26;;;;;;;1.35;0.75;;;18.00;91.10;;;;;;5047066;28;20055;-72
2022/08/22 05:19:00;;;;;;;5.03;1.10;;;18.00;91.10;;;;;;5064632;28;20028;-72
2022/08/22 05:21:31;;;;;;;2.00;1.00;;;17.90;91.20;;;;;;5039832;28;20557;-72
2022/08/22 05:24:08;;;;;;;2.85;0.70;;;17.80;91.40;;;;;;5065764;28;20032;-72
2022/08/22 05:26:42;;;;;;;1.23;0.60;;;17.50;91.80;;;;;;5064397;28;20035;-72
2022/08/22 05:29:09;;;;;;;2.75;0.98;;;17.70;91.60;;;;;;5064565;28;20021;-71
2022/08/22 05:31:46;;;;;;;3.03;0.80;;;17.60;91.80;;;;;;5071199;28;20111;-72
2022/08/22 05:34:17;;;;;;;2.22;1.00;;;18.00;91.30;;;;;;5063426;28;20043;-72
2022/08/22 05:36:50;;;;;;;3.60;0.88;;;18.00;91.30;;;;;;5051907;28;20024;-72
2022/08/22 05:39:22;;;;;;;2.55;0.80;;;17.80;91.80;;;;;;5067191;28;20097;-71
2022/08/22 05:41:50;;;;;;;4.25;1.20;;;17.70;92.10;;;;;;5067224;28;20119;-71
2022/08/22 05:44:24;;;;;;;2.65;1.20;;;17.70;91.90;;;;;;5067129;28;20417;-71
2022/08/22 05:46:59;;;;;;;1.42;0.70;;;17.90;92.20;;;;;;5065903;28;20645;-71
2022/08/22 05:49:39;;;;;;;2.97;0.88;;;17.80;92.10;;;;;;5066151;28;20090;-71
2022/08/22 05:52:47;;;;;;;1.73;0.80;;;18.30;91.30;;;;;;5067395;28;21009;-72
2022/08/22 05:55:30;;;;;;;1.73;0.80;;;18.70;90.60;;;;;;5050570;28;20044;-72
2022/08/22 05:58:02;;;;;;;2.10;1.00;;;18.50;90.90;;;;;;5065837;28;20129;-71
2022/08/22 06:00:34;;;;;;;1.85;0.85;;;18.60;90.80;;;;;;5067148;28;20116;-72
2022/08/22 06:03:14;;;;;;;1.75;0.70;;;18.70;90.70;;;;;;5066378;28;20116;-72
2022/08/22 06:05:45;;;;;;;1.33;0.70;;;18.80;90.70;;;;;;5064002;28;20078;-71
2022/08/22 06:08:25;;;;;;;2.95;1.17;;;19.10;90.10;;;;;;5057459;28;20024;-71
2022/08/22 06:10:54;;;;;;;1.88;0.88;;;19.00;90.50;;;;;;5069386;28;20144;-72
2022/08/22 06:13:41;;;;;;;2.95;1.33;;;19.10;90.20;;;;;;5061698;28;20478;-71
2022/08/22 06:16:48;;;;;;;2.65;1.00;;;19.10;90.80;;;;;;5070246;28;20031;-71
2022/08/22 06:19:18;;;;;;;3.05;1.10;;;19.40;88.60;;;;;;5048247;28;20123;-72
2022/08/22 06:21:47;;;;;;;4.10;1.00;;;19.10;91.60;;;;;;5070827;28;20032;-71
2022/08/22 06:24:21;;;;;;;1.63;0.88;;;19.00;91.90;;;;;;5067084;28;20024;-71
2022/08/22 06:26:50;;;;;;;2.65;1.20;;;19.00;91.60;;;;;;5069442;28;20394;-71
2022/08/22 06:29:59;;;;;;;1.52;0.70;;;19.00;91.70;;;;;;5070830;28;20540;-71
2022/08/22 06:32:29;;;;;;;3.22;1.52;;;19.30;91.60;;;;;;5012146;28;20045;-72
2022/08/22 06:35:02;;;;;;;2.30;1.10;;;19.60;91.20;;;;;;5067665;28;20127;-71
2022/08/22 06:37:58;;;;;;;2.22;1.10;;;20.00;90.30;;;;;;5068312;28;20076;-72
2022/08/22 06:40:25;;;;;;;2.42;1.10;;;20.30;90.70;;;;;;5066215;28;20076;-72
2022/08/22 06:42:53;;;;;;;2.00;0.90;;;20.40;91.10;;;;;;5067302;28;20063;-72
2022/08/22 06:45:29;;;;;;;1.63;0.80;;;20.50;92.20;;;;;;5058447;28;20126;-72
2022/08/22 06:48:19;;;;;;;3.03;1.20;;;20.60;91.80;;;;;;5056158;28;20033;-72
2022/08/22 06:50:49;;;;;;;1.77;0.70;;;20.70;92.30;;;;;;5057325;28;20071;-71
2022/08/22 06:53:39;;;;;;;3.28;0.95;;;21.10;91.60;;;;;;5061242;28;20502;-72
2022/08/22 06:56:06;;;;;;;3.25;1.23;;;21.80;91.60;;;;;;5055494;28;20854;-70
2022/08/22 06:58:44;;;;;;;2.22;1.20;;;22.20;90.50;;;;;;5058150;28;20024;-71
2022/08/22 07:01:34;;;;;;;4.32;1.23;;;23.90;89.80;;;;;;5062828;28;20591;-72
2022/08/22 07:04:06;;;;;;;1.88;0.77;;;25.10;85.20;;;;;;5057455;28;20731;-71
2022/08/22 07:06:42;;;;;;;2.10;1.00;;;26.20;82.70;;;;;;5061162;28;20024;-71
2022/08/22 07:09:22;;;;;;;3.42;1.20;;;27.70;77.50;;;;;;5047898;28;20463;-72
2022/08/22 07:11:49;;;;;;;3.25;1.10;;;29.10;76.00;;;;;;5062067;28;20463;-73
2022/08/22 07:14:17;;;;;;;7.10;1.70;;;29.70;73.80;;;;;;5051350;28;20041;-72
2022/08/22 07:16:55;;;;;;;5.55;1.40;;;29.90;76.60;;;;;;5068232;28;20058;-72
2022/08/22 07:19:32;;;;;;;3.47;1.15;;;30.80;76.30;;;;;;5048738;28;20055;-73
2022/08/22 07:22:09;;;;;;;2.90;1.17;;;30.80;74.90;;;;;;5052069;28;20054;-74
2022/08/22 07:24:35;;;;;;;2.00;0.80;;;31.10;73.10;;;;;;5060844;28;20052;-73
2022/08/22 07:27:30;;;;;;;4.00;1.20;;;31.00;73.90;;;;;;5053391;28;20115;-74
2022/08/22 07:30:12;;;;;;;2.35;0.95;;;31.10;74.60;;;;;;5032635;28;20576;-75
2022/08/22 07:33:01;;;;;;;3.47;1.02;;;30.70;72.70;;;;;;5059245;28;20044;-73
2022/08/22 07:35:29;;;;;;;6.68;1.08;;;30.50;73.80;;;;;;5053085;28;20112;-73
2022/08/22 07:38:06;;;;;;;3.08;0.98;;;30.50;72.70;;;;;;5045963;28;20032;-73
2022/08/22 07:40:38;;;;;;;1.70;0.80;;;29.70;73.20;;;;;;5064039;28;20020;-73
2022/08/22 07:43:09;;;;;;;2.25;1.13;;;26.20;77.80;;;;;;5046490;28;20478;-72
2022/08/22 07:45:42;;;;;;;2.72;1.08;;;23.80;81.00;;;;;;5055977;28;20056;-73
2022/08/22 07:48:20;;;;;;;11.98;1.30;;;23.10;84.50;;;;;;5045376;28;20135;-73
2022/08/22 07:51:01;;;;;;;2.78;1.20;;;22.90;86.00;;;;;;5045664;28;20029;-72
2022/08/22 07:53:34;;;;;;;3.97;1.17;;;22.60;87.30;;;;;;5064360;28;20036;-72
2022/08/22 07:56:03;;;;;;;4.38;1.25;;;22.60;87.30;;;;;;5065159;28;20087;-72
2022/08/22 07:58:32;;;;;;;3.00;1.33;;;22.50;86.60;;;;;;5066139;28;20129;-72
2022/08/22 08:00:59;;;;;;;1.85;0.90;;;22.40;88.10;;;;;;5065464;28;20032;-73
2022/08/22 08:03:27;;;;;;;2.85;0.93;;;22.30;84.70;;;;;;5066315;28;20039;-72
2022/08/22 08:05:54;;;;;;;2.20;1.00;;;22.30;82.20;;;;;;5064478;28;20111;-72
2022/08/22 08:08:36;;;;;;;3.15;1.00;;;22.50;82.40;;;;;;5065705;28;20044;-72
2022/08/22 08:11:03;;;;;;;3.47;1.00;;;22.60;82.60;;;;;;5056921;28;20041;-72
2022/08/22 08:13:34;;;;;;;4.05;1.67;;;22.80;82.10;;;;;;5061302;28;20089;-73
2022/08/22 08:16:02;;;;;;;2.20;0.98;;;22.80;82.10;;;;;;5047371;28;20040;-72
2022/08/22 08:18:32;;;;;;;2.33;1.00;;;22.90;79.80;;;;;;5045783;28;20086;-72
2022/08/22 08:21:02;;;;;;;2.38;0.82;;;22.90;80.40;;;;;;5045105;28;20135;-72
2022/08/22 08:23:34;;;;;;;2.33;1.00;;;22.90;79.80;;;;;;5052929;28;20028;-72
2022/08/22 08:26:16;;;;;;;3.20;1.10;;;23.00;80.20;;;;;;5064538;28;20101;-72
2022/08/22 08:28:52;;;;;;;4.70;1.70;;;23.00;82.70;;;;;;5058036;28;20038;-72
2022/08/22 08:31:36;;;;;;;3.13;1.30;;;23.10;81.70;;;;;;5063191;28;20041;-72
2022/08/22 08:34:10;;;;;;;2.95;1.25;;;23.20;81.30;;;;;;5064637;28;20078;-73
2022/08/22 08:37:01;;;;;;;2.50;0.95;;;23.20;79.60;;;;;;5064797;28;20447;-72
2022/08/22 08:39:34;;;;;;;3.05;1.23;;;23.80;79.40;;;;;;5064875;28;20072;-72
2022/08/22 08:42:13;;;;;;;3.38;1.05;;;26.50;76.30;;;;;;5063273;28;20028;-73
2022/08/22 08:44:41;;;;;;;3.65;1.02;;;28.00;74.50;;;;;;5064866;28;20130;-72
2022/08/22 08:47:31;;;;;;;2.13;1.08;;;28.90;73.60;;;;;;5065154;28;20028;-72
2022/08/22 08:50:05;;;;;;;2.88;0.90;;;29.90;71.40;;;;;;5057090;28;20390;-73
2022/08/22 08:52:50;;;;;;;2.30;1.00;;;29.40;73.40;;;;;;5061899;28;20040;-72
2022/08/22 08:55:28;;;;;;;4.18;1.27;;;29.70;74.10;;;;;;5064901;28;20033;-73
2022/08/22 08:58:11;;;;;;;2.08;0.75;;;29.50;72.50;;;;;;5064161;28;20131;-72
2022/08/22 09:00:40;;;;;;;2.05;1.20;;;29.00;70.90;;;;;;5065475;28;20078;-72
2022/08/22 09:03:55;;;;;;;2.97;1.00;;;28.70;70.70;;;;;;5067965;28;20032;-72
2022/08/22 09:06:36;;;;;;;3.17;1.15;;;28.90;72.70;;;;;;5005062;28;20504;-72
2022/08/22 09:09:30;;;;;;;1.55;0.93;;;28.90;71.70;;;;;;4996147;28;20038;-72
2022/08/22 09:12:13;;;;;;;2.28;0.65;;;28.10;70.80;;;;;;5039815;28;20049;-73
2022/08/22 09:15:06;;;;;;;1.93;1.00;;;27.40;72.40;;;;;;5051340;28;20044;-72
2022/08/22 09:17:58;;;;;;;2.30;1.00;;;26.30;72.90;;;;;;5067282;28;20472;-73
2022/08/22 09:20:46;;;;;;;2.42;1.00;;;25.50;71.90;;;;;;5047986;28;20063;-72
2022/08/22 09:23:49;;;;;;;1.95;1.10;;;25.30;74.90;;;;;;5046442;28;20170;-72
2022/08/22 09:26:17;;;;;;;1.83;0.90;;;25.40;73.90;;;;;;5049780;28;20032;-73
2022/08/22 09:29:19;;;;;;;1.55;0.80;;;25.40;72.50;;;;;;5050425;28;20028;-72
2022/08/22 09:32:04;;;;;;;4.82;1.77;;;25.70;73.60;;;;;;4980806;28;20043;-72
2022/08/22 09:34:45;;;;;;;2.97;0.93;;;25.80;72.20;;;;;;5058958;28;20102;-73
2022/08/22 09:37:36;;;;;;;2.22;0.82;;;26.00;73.50;;;;;;5054455;28;20052;-72
2022/08/22 09:40:14;;;;;;;3.35;0.95;;;25.90;72.90;;;;;;5066907;28;20359;-73
2022/08/22 09:42:51;;;;;;;2.30;1.15;;;25.80;73.30;;;;;;5066090;28;20538;-73
2022/08/22 09:45:32;;;;;;;3.38;0.88;;;25.90;72.20;;;;;;5067356;28;20086;-73
2022/08/22 09:48:07;;;;;;;3.20;1.08;;;26.10;75.50;;;;;;5066348;28;20090;-73
2022/08/22 09:50:54;;;;;;;2.40;1.17;;;26.40;72.60;;;;;;5066998;28;20047;-73
2022/08/22 09:53:56;;;;;;;2.22;0.98;;;26.30;74.00;;;;;;5068407;28;20036;-73
2022/08/22 09:56:41;;;;;;;3.92;1.20;;;26.50;74.10;;;;;;5070673;28;20583;-73
2022/08/22 09:59:12;;;;;;;2.70;0.85;;;26.50;73.00;;;;;;5067282;28;20466;-73
2022/08/22 10:01:57;;;;;;;2.78;1.20;;;26.40;72.10;;;;;;5066113;28;20428;-73
2022/08/22 10:04:44;;;;;;;2.67;1.30;;;26.60;70.80;;;;;;5066826;28;20198;-73
2022/08/22 10:07:22;;;;;;;2.00;1.10;;;26.40;73.40;;;;;;5066753;28;20029;-73
2022/08/22 10:09:48;;;;;;;4.53;1.42;;;26.60;70.60;;;;;;5056827;28;20108;-73
2022/08/22 10:12:26;;;;;;;3.70;1.00;;;26.80;70.80;;;;;;5057665;28;20147;-73
2022/08/22 10:15:22;;;;;;;3.78;1.42;;;27.20;71.30;;;;;;5067045;28;20034;-73
2022/08/22 10:17:54;;;;;;;2.85;1.40;;;27.40;72.50;;;;;;5066006;28;20064;-73
2022/08/22 10:20:31;;;;;;;2.55;1.02;;;27.50;73.70;;;;;;5058716;28;20025;-73
2022/08/22 10:23:34;;;;;;;2.72;1.10;;;27.50;73.80;;;;;;5065298;28;20032;-73
2022/08/22 10:26:19;;;;;;;2.30;1.10;;;27.70;72.20;;;;;;5049178;28;20070;-73
2022/08/22 10:29:07;;;;;;;2.10;1.17;;;27.90;74.60;;;;;;5066574;28;20657;-73
2022/08/22 10:31:51;;;;;;;2.72;1.30;;;27.80;72.50;;;;;;5051239;28;20037;-73
2022/08/22 10:34:27;;;;;;;2.15;1.10;;;27.70;71.80;;;;;;5052144;28;20132;-73
2022/08/22 10:37:15;;;;;;;2.40;1.00;;;27.80;74.40;;;;;;5057764;28;20086;-73
2022/08/22 10:40:04;;;;;;;1.85;0.93;;;28.00;73.10;;;;;;5059691;28;20037;-73
2022/08/22 10:42:40;;;;;;;1.83;1.00;;;27.80;71.60;;;;;;5027159;28;20056;-73
2022/08/22 10:45:18;;;;;;;2.55;0.90;;;28.00;71.20;;;;;;5046676;28;20108;-73
2022/08/22 10:47:53;;;;;;;2.20;1.10;;;28.00;70.60;;;;;;5059132;28;20351;-73
2022/08/22 10:50:43;;;;;;;2.63;1.25;;;28.00;70.40;;;;;;5046351;28;20029;-73
2022/08/22 10:53:29;;;;;;;2.33;1.02;;;28.10;73.60;;;;;;5065781;28;20028;-73
2022/08/22 10:56:12;;;;;;;2.42;1.15;;;28.30;72.00;;;;;;5065752;28;20045;-73
2022/08/22 10:58:54;;;;;;;2.38;0.90;;;28.10;69.70;;;;;;5069764;28;20165;-73
2022/08/22 11:01:24;;;;;;;3.33;1.17;;;28.30;68.90;;;;;;5050972;28;20031;-73
2022/08/22 11:04:04;;;;;;;2.97;1.33;;;28.20;69.50;;;;;;5060016;28;20051;-73
2022/08/22 11:06:44;;;;;;;1.90;0.82;;;28.20;70.10;;;;;;5063917;28;20489;-73
2022/08/22 11:09:51;;;;;;;2.25;1.10;;;28.10;68.60;;;;;;5063892;28;20056;-73
2022/08/22 11:12:32;;;;;;;1.98;0.93;;;28.40;68.20;;;;;;5057425;28;20719;-73
2022/08/22 11:15:09;;;;;;;2.85;1.40;;;28.60;71.20;;;;;;5060482;28;20109;-72
2022/08/22 11:18:06;;;;;;;3.25;1.20;;;28.60;69.90;;;;;;5067498;28;20044;-71
2022/08/22 11:20:50;;;;;;;1.73;0.85;;;28.70;67.20;;;;;;5058589;28;20059;-75
2022/08/22 11:23:39;;;;;;;2.47;1.13;;;28.70;67.50;;;;;;5064992;28;20960;-75
2022/08/22 11:26:33;;;;;;;2.80;1.20;;;28.80;67.80;;;;;;5060999;28;20033;-75
2022/08/22 11:29:17;;;;;;;4.53;1.33;;;28.50;66.80;;;;;;5052953;28;20043;-75
2022/08/22 11:32:32;;;;;;;1.75;0.82;;;28.60;68.40;;;;;;5054707;28;20051;-76
2022/08/22 11:35:06;;;;;;;2.10;1.27;;;29.20;67.00;;;;;;5012362;28;20041;-75
2022/08/22 11:38:07;;;;;;;1.80;1.00;;;29.50;66.70;;;;;;5060369;28;20032;-75
2022/08/22 11:40:53;;;;;;;2.95;1.13;;;29.60;69.10;;;;;;5051349;28;20064;-75
2022/08/22 11:43:54;;;;;;;2.70;1.27;;;29.50;68.90;;;;;;5045935;28;20079;-75
2022/08/22 11:46:30;;;;;;;2.38;1.20;;;29.40;66.90;;;;;;5003003;28;20049;-75
2022/08/22 11:49:05;;;;;;;2.88;1.10;;;29.30;66.40;;;;;;5050932;28;20051;-75
2022/08/22 11:52:04;;;;;;;3.65;1.90;;;29.40;67.10;;;;;;5052501;28;20052;-75
2022/08/22 11:54:53;;;;;;;1.90;0.93;;;29.50;68.60;;;;;;5048958;28;20025;-75
2022/08/22 11:57:34;;;;;;;2.60;1.10;;;29.40;65.10;;;;;;5059335;28;20075;-75
2022/08/22 12:00:31;;;;;;;1.90;1.08;;;29.80;70.50;;;;;;5055941;28;20039;-75
2022/08/22 12:03:33;;;;;;;3.13;0.95;;;30.20;69.50;;;;;;5064217;28;20103;-75
2022/08/22 12:06:02;;;;;;;2.42;1.17;;;30.00;68.30;;;;;;5057603;28;20482;-75
2022/08/22 12:08:34;;;;;;;2.90;1.52;;;30.10;69.80;;;;;;5046201;28;20104;-75
2022/08/22 12:11:18;;;;;;;1.75;0.95;;;30.10;68.60;;;;;;5048213;28;20048;-74
2022/08/22 12:13:59;;;;;;;2.83;1.10;;;30.00;68.90;;;;;;5046039;28;20040;-74
2022/08/22 12:16:37;;;;;;;1.92;0.85;;;29.80;66.10;;;;;;5045465;28;20474;-74
2022/08/22 12:19:20;;;;;;;2.38;1.10;;;30.00;69.10;;;;;;5045398;28;20033;-74
2022/08/22 12:21:49;;;;;;;;;;;29.90;67.50;;;;;;5045420;28;20128;-74
2022/08/22 12:24:32;;;;;;;3.53;1.42;;;29.80;66.90;;;;;;5050422;28;19916;-75
2022/08/22 12:27:11;;;;;;;2.53;1.20;;;29.90;66.30;;;;;;5052692;28;20024;-75
2022/08/22 12:29:45;;;;;;;1.77;0.80;;;30.00;67.60;;;;;;5055887;28;20029;-74
2022/08/22 12:32:50;;;;;;;2.03;1.17;;;30.00;66.30;;;;;;5045033;28;20120;-74
2022/08/22 12:35:35;;;;;;;1.70;1.10;;;29.70;64.40;;;;;;5045248;28;20028;-75
2022/08/22 12:38:12;;;;;;;28.92;3.75;;;30.00;67.00;;;;;;5057359;28;20029;-75
2022/08/22 12:40:56;;;;;;;4.25;1.83;;;30.10;68.00;;;;;;5044772;28;20036;-76
2022/08/22 12:43:22;;;;;;;;;;;30.30;67.50;;;;;;5053389;28;20048;-76
2022/08/22 12:46:16;;;;;;;4.43;1.35;;;30.20;64.90;;;;;;5052257;28;19913;-76
2022/08/22 12:48:54;;;;;;;2.40;1.10;;;30.20;65.70;;;;;;5044879;28;20504;-74
2022/08/22 12:51:44;;;;;;;2.13;1.00;;;30.30;65.20;;;;;;5055797;28;20135;-75
2022/08/22 12:54:40;;;;;;;3.17;1.38;;;30.50;66.50;;;;;;5044615;28;20459;-75
2022/08/22 12:57:42;;;;;;;2.70;1.35;;;30.70;67.30;;;;;;5058430;28;20044;-75
2022/08/22 13:00:23;;;;;;;2.85;1.38;;;30.60;65.50;;;;;;5059886;28;20513;-75
2022/08/22 13:02:53;;;;;;;2.58;1.40;;;30.50;65.90;;;;;;5051760;28;20529;-75
2022/08/22 13:05:29;;;;;;;2.63;1.13;;;30.40;65.90;;;;;;5057927;28;20032;-75
2022/08/22 13:08:00;;;;;;;2.58;1.40;;;30.60;67.90;;;;;;5052553;28;20071;-75
2022/08/22 13:10:35;;;;;;;2.97;1.27;;;30.70;65.90;;;;;;5044216;28;20031;-72
2022/08/22 13:13:02;;;;;;;2.03;1.33;;;30.80;65.90;;;;;;5050053;28;20136;-73
2022/08/22 13:15:34;;;;;;;2.42;1.00;;;30.30;63.70;;;;;;5051505;28;20025;-72
2022/08/22 13:18:04;;;;;;;2.60;1.40;;;30.40;66.00;;;;;;5056871;28;20028;-72
2022/08/22 13:20:36;;;;;;;3.15;1.27;;;30.80;67.20;;;;;;5067376;28;20413;-73
2022/08/22 13:23:15;;;;;;;6.55;1.38;;;30.80;65.60;;;;;;5058313;28;20745;-72
2022/08/22 13:26:01;;;;;;;2.05;1.13;;;30.80;64.50;;;;;;5062124;28;20025;-73
2022/08/22 13:28:30;;;;;;;4.18;1.70;;;30.60;63.30;;;;;;5057941;28;20104;-73
2022/08/22 13:30:58;;;;;;;3.17;1.35;;;30.60;63.40;;;;;;5063755;28;20365;-73
2022/08/22 13:33:37;;;;;;;6.60;1.27;;;30.60;65.90;;;;;;5068064;28;20028;-72
2022/08/22 13:36:12;;;;;;;2.60;1.17;;;30.70;65.40;;;;;;5066003;28;20086;-73
2022/08/22 13:38:47;;;;;;;9.23;2.03;;;30.70;65.70;;;;;;5060517;28;20029;-72
2022/08/22 13:41:27;;;;;;;1.98;1.10;;;31.00;67.80;;;;;;5047073;28;20032;-73
2022/08/22 13:44:10;;;;;;;3.58;1.23;;;31.20;67.00;;;;;;5048189;28;20029;-73
2022/08/22 13:46:37;;;;;;;3.15;1.35;;;31.00;64.60;;;;;;5059441;28;20494;-73
2022/08/22 13:49:06;;;;;;;3.00;1.10;;;30.90;65.20;;;;;;5050352;28;20043;-73
2022/08/22 13:51:58;;;;;;;8.50;2.25;;;30.60;65.30;;;;;;5046438;28;20039;-73
2022/08/22 13:54:50;;;;;;;1.92;0.93;;;30.80;65.30;;;;;;5066858;28;20093;-73
2022/08/22 13:57:34;;;;;;;4.28;1.55;;;30.70;64.40;;;;;;5050193;28;20317;-73
2022/08/22 14:00:18;;;;;;;4.05;1.42;;;31.10;63.40;;;;;;5056090;28;20104;-72
2022/08/22 14:02:57;;;;;;;3.95;1.33;;;31.10;67.40;;;;;;5057541;28;20049;-73